createdAt,value
2022-10-04T00:02:18.560Z,2.40
2022-10-04T00:05:06.057Z,4.20
2022-10-04T00:07:45.820Z,5.40
2022-10-04T00:10:17.956Z,2.90
2022-10-04T00:12:59.081Z,3.70
2022-10-04T00:15:38.485Z,2.40
2022-10-04T00:18:13.602Z,6.80
2022-10-04T00:20:51.025Z,3.10
2022-10-04T00:23:26.939Z,4.00
2022-10-04T00:26:03.275Z,4.30
2022-10-04T00:28:40.414Z,3.50
2022-10-04T00:31:19.680Z,2.80
2022-10-04T00:33:55.910Z,3.70
2022-10-04T00:36:26.442Z,2.90
2022-10-04T00:39:18.162Z,3.80
2022-10-04T00:41:50.049Z,4.40
2022-10-04T00:44:47.733Z,3.50
2022-10-04T00:47:54.052Z,5.20
2022-10-04T00:50:40.373Z,4.40
2022-10-04T00:53:38.466Z,4.20
2022-10-04T00:56:37.634Z,6.00
2022-10-04T00:59:18.065Z,6.90
2022-10-04T01:01:52.932Z,3.60
2022-10-04T01:04:46.017Z,3.40
2022-10-04T01:07:23.046Z,4.80
2022-10-04T01:09:57.585Z,5.30
2022-10-04T01:12:39.351Z,6.70
2022-10-04T01:15:37.621Z,8.80
2022-10-04T01:18:29.944Z,5.40
2022-10-04T01:21:22.883Z,5.60
2022-10-04T01:24:15.960Z,5.70
2022-10-04T01:26:48.149Z,4.30
2022-10-04T01:39:04.849Z,4.40
2022-10-04T01:41:42.126Z,7.40
2022-10-04T01:44:21.524Z,7.00
2022-10-04T01:46:54.856Z,4.70
2022-10-04T01:49:31.849Z,4.30
2022-10-04T01:52:15.707Z,8.70
2022-10-04T01:54:53.458Z,4.80
2022-10-04T01:57:32.543Z,5.50
2022-10-04T02:00:08.654Z,3.40
2022-10-04T02:03:29.728Z,5.50
2022-10-04T02:06:05.788Z,6.00
2022-10-04T02:08:42.345Z,4.50
2022-10-04T02:11:20.910Z,4.40
2022-10-04T02:13:54.275Z,4.60
2022-10-04T02:16:25.154Z,3.70
2022-10-04T02:18:55.965Z,6.20
2022-10-04T02:22:15.768Z,4.80
2022-10-04T02:24:50.599Z,5.00
2022-10-04T04:11:54.882Z,3.00
2022-10-04T04:14:30.232Z,5.20
2022-10-04T04:17:29.860Z,3.10
2022-10-04T04:20:07.583Z,3.70
2022-10-04T04:22:39.705Z,4.20
2022-10-04T04:25:16.733Z,6.10
2022-10-04T04:27:49.971Z,4.00
2022-10-04T04:30:20.724Z,2.10
2022-10-04T04:33:21.269Z,2.60
2022-10-04T04:35:56.148Z,5.10
2022-10-04T04:40:57.783Z,5.70
2022-10-04T04:43:28.869Z,3.00
2022-10-04T04:46:25.602Z,3.30
2022-10-04T04:49:01.761Z,5.20
2022-10-04T04:51:33.867Z,3.60
2022-10-04T04:54:11.735Z,2.60
2022-10-04T05:38:21.779Z,3.70
2022-10-04T05:40:57.561Z,3.80
2022-10-04T05:43:41.999Z,3.40
2022-10-04T05:46:19.642Z,5.60
2022-10-04T05:48:56.640Z,4.10
2022-10-04T05:51:30.265Z,5.40
2022-10-04T05:54:02.513Z,2.70
2022-10-04T05:57:19.784Z,2.70
2022-10-04T06:00:21.407Z,5.30
2022-10-04T06:03:02.675Z,4.40
2022-10-04T06:05:43.035Z,3.90
2022-10-04T06:08:42.948Z,6.50
2022-10-04T06:11:16.288Z,3.00
2022-10-04T06:14:34.091Z,2.90
2022-10-04T06:17:06.563Z,3.80
2022-10-04T06:20:29.799Z,2.60
2022-10-04T06:23:01.954Z,12.30
2022-10-04T06:25:43.088Z,3.10
2022-10-04T06:28:21.401Z,4.00
2022-10-04T06:31:10.177Z,3.80
2022-10-04T06:34:02.351Z,4.30
2022-10-04T06:36:43.619Z,2.80
2022-10-04T06:40:07.990Z,2.80
2022-10-04T06:42:38.158Z,4.30
2022-10-04T06:45:21.780Z,3.50
2022-10-04T06:48:13.810Z,2.50
2022-10-04T06:50:45.136Z,2.70
2022-10-04T06:53:31.680Z,3.60
2022-10-04T06:56:18.137Z,2.80
2022-10-04T06:59:09.298Z,2.90
2022-10-04T07:01:52.635Z,2.50
2022-10-04T07:05:06.861Z,4.10
2022-10-04T07:07:39.250Z,3.30
2022-10-04T07:10:33.480Z,2.50
2022-10-04T07:13:33.657Z,3.50
2022-10-04T07:16:17.407Z,2.80
2022-10-04T07:18:56.903Z,3.30
2022-10-04T07:21:41.504Z,2.50
2022-10-04T07:24:21.085Z,2.40
2022-10-04T07:26:54.202Z,1.70
2022-10-04T07:29:31.451Z,1.90
2022-10-04T07:32:13.287Z,2.60
2022-10-04T07:34:44.519Z,3.00
2022-10-04T07:37:14.908Z,8.90
2022-10-04T07:40:04.648Z,10.00
2022-10-04T07:42:45.811Z,3.40
2022-10-04T07:45:29.152Z,2.90
2022-10-04T07:48:25.593Z,4.20
2022-10-04T07:50:59.310Z,2.80
2022-10-04T07:53:35.055Z,2.50
2022-10-04T07:56:23.187Z,3.90
2022-10-04T07:59:33.546Z,2.60
2022-10-04T08:02:47.057Z,6.30
2022-10-04T08:05:22.421Z,2.80
2022-10-04T08:08:20.233Z,4.30
2022-10-04T08:10:57.550Z,3.70
2022-10-04T08:14:02.955Z,3.00
2022-10-04T08:20:05.738Z,4.90
2022-10-04T08:22:56.958Z,23.40
2022-10-04T08:25:43.260Z,20.10
2022-10-04T08:28:42.504Z,11.00
2022-10-04T08:31:22.467Z,6.40
2022-10-04T08:34:48.281Z,12.60
2022-10-04T08:37:49.164Z,22.00
2022-10-04T08:41:10.575Z,4.70
2022-10-04T08:44:18.022Z,3.90
2022-10-04T08:50:47.191Z,4.30
2022-10-04T08:53:53.191Z,11.30
2022-10-04T08:56:52.387Z,7.00
2022-10-04T08:59:28.294Z,60.40
2022-10-04T09:11:42.761Z,4.60
2022-10-04T09:14:54.760Z,2.40
2022-10-04T09:17:53.501Z,2.40
2022-10-04T09:20:49.780Z,2.80
2022-10-04T09:23:37.754Z,1.70
2022-10-04T09:26:46.005Z,2.00
2022-10-04T09:29:35.119Z,1.50
2022-10-04T09:32:13.567Z,1.80
2022-10-04T09:35:19.914Z,1.20
2022-10-04T09:38:20.757Z,1.60
2022-10-04T09:41:21.527Z,4.70
2022-10-04T09:44:46.446Z,1.90
2022-10-04T09:47:38.391Z,1.80
2022-10-04T09:50:32.439Z,3.20
2022-10-04T09:53:07.119Z,3.00
2022-10-04T09:56:28.300Z,1.80
2022-10-04T09:59:28.276Z,2.20
2022-10-04T10:02:21.428Z,2.30
2022-10-04T10:05:20.519Z,2.80
2022-10-04T10:07:52.499Z,1.70
2022-10-04T10:11:09.417Z,1.70
2022-10-04T10:14:17.076Z,1.90
2022-10-04T10:17:36.904Z,1.30
2022-10-04T10:20:34.923Z,2.40
2022-10-04T10:23:36.284Z,1.90
2022-10-04T10:26:11.383Z,1.90
2022-10-04T10:29:21.712Z,1.80
2022-10-04T10:32:28.429Z,1.20
2022-10-04T10:35:16.698Z,2.40
2022-10-04T10:38:03.624Z,1.90
2022-10-04T10:41:11.024Z,6.60
2022-10-04T10:46:32.810Z,1.90
2022-10-04T10:49:41.713Z,2.20
2022-10-04T10:52:42.795Z,1.50
2022-10-04T10:55:49.554Z,3.60
2022-10-04T11:01:10.024Z,1.50
2022-10-04T11:04:24.420Z,1.70
2022-10-04T11:07:16.752Z,2.30
2022-10-04T11:10:23.456Z,1.50
2022-10-04T11:13:48.470Z,1.70
2022-10-04T11:16:57.780Z,1.70
2022-10-04T11:19:34.887Z,3.00
2022-10-04T11:22:38.641Z,1.60
2022-10-04T11:25:30.220Z,1.70
2022-10-04T11:28:52.643Z,5.50
2022-10-04T11:32:06.012Z,1.80
2022-10-04T11:35:01.953Z,2.00
2022-10-04T11:41:11.282Z,2.60
2022-10-04T11:44:24.890Z,1.50
2022-10-04T11:47:06.879Z,1.40
2022-10-04T11:50:23.227Z,6.10
2022-10-04T11:53:22.422Z,1.40
2022-10-04T11:56:04.822Z,1.70
2022-10-04T11:58:54.725Z,1.50
2022-10-04T12:01:54.200Z,2.10
2022-10-04T12:05:02.165Z,1.90
2022-10-04T12:08:02.485Z,3.20
2022-10-04T12:10:40.761Z,1.70
2022-10-04T12:13:35.046Z,4.00
2022-10-04T12:16:16.344Z,2.00
2022-10-04T12:19:16.052Z,1.50
2022-10-04T12:21:51.759Z,4.90
2022-10-04T12:24:27.755Z,1.80
2022-10-04T12:27:31.529Z,2.50
2022-10-04T12:30:22.295Z,2.40
2022-10-04T12:32:57.904Z,2.90
2022-10-04T12:35:59.279Z,2.60
2022-10-04T12:38:50.539Z,1.60
2022-10-04T12:41:27.163Z,1.40
2022-10-04T12:44:29.987Z,1.60
2022-10-04T12:47:34.655Z,1.70
2022-10-04T12:50:15.755Z,1.10
2022-10-04T12:53:22.636Z,1.40
2022-10-04T12:56:28.616Z,1.20
2022-10-04T12:59:04.220Z,2.30
2022-10-04T13:01:52.273Z,1.40
2022-10-04T13:04:37.070Z,1.40
2022-10-04T13:07:45.117Z,1.40
2022-10-04T13:10:44.909Z,2.50
2022-10-04T13:14:00.265Z,1.40
2022-10-04T13:17:30.275Z,2.20
2022-10-04T13:23:20.205Z,1.30
2022-10-04T13:26:54.000Z,2.00
2022-10-04T13:29:30.975Z,1.70
2022-10-04T13:32:03.372Z,1.50
2022-10-04T13:34:50.113Z,1.30
2022-10-04T13:54:52.352Z,1.00
2022-10-04T13:57:31.450Z,1.80
2022-10-04T14:00:07.753Z,1.30
2022-10-04T14:03:43.395Z,1.30
2022-10-04T14:06:12.909Z,1.00
2022-10-04T14:09:11.358Z,1.40
2022-10-04T14:12:18.181Z,3.50
2022-10-04T14:15:22.117Z,2.60
2022-10-04T14:18:26.948Z,2.60
2022-10-04T14:21:24.270Z,1.90
2022-10-04T14:24:34.886Z,2.20
2022-10-04T14:27:22.825Z,1.50
2022-10-04T14:30:19.057Z,1.40
2022-10-04T14:33:12.944Z,2.10
2022-10-04T14:36:03.749Z,1.80
2022-10-04T14:38:47.844Z,1.50
2022-10-04T14:41:52.886Z,1.40
2022-10-04T14:44:45.186Z,2.20
2022-10-04T14:48:05.721Z,1.20
2022-10-04T14:50:47.912Z,3.40
2022-10-04T14:53:42.355Z,1.40
2022-10-04T14:56:52.775Z,4.20
2022-10-04T14:59:36.586Z,4.50
2022-10-04T15:02:24.011Z,2.70
2022-10-04T15:05:24.506Z,2.30
2022-10-04T15:07:59.894Z,1.10
2022-10-04T15:10:37.883Z,1.20
2022-10-04T15:13:19.063Z,1.10
2022-10-04T15:16:14.499Z,1.40
2022-10-04T15:18:56.486Z,0.90
2022-10-04T15:21:50.970Z,1.70
2022-10-04T15:24:21.839Z,1.80
2022-10-04T15:26:55.593Z,3.60
2022-10-04T15:29:32.470Z,2.00
2022-10-04T15:32:33.176Z,3.80
2022-10-04T15:35:15.777Z,2.70
2022-10-04T15:38:03.187Z,2.90
2022-10-04T15:41:02.451Z,4.20
2022-10-04T15:43:50.547Z,2.70
2022-10-04T15:46:42.339Z,2.60
2022-10-04T15:49:52.926Z,4.70
2022-10-04T15:52:52.810Z,4.40
2022-10-04T15:55:31.867Z,4.70
2022-10-04T15:58:03.326Z,4.90
2022-10-04T16:00:44.267Z,33.60
2022-10-04T16:04:16.009Z,8.30
2022-10-04T16:07:01.253Z,4.50
2022-10-04T16:09:48.198Z,3.90
2022-10-04T16:12:36.853Z,3.10
2022-10-04T16:15:38.843Z,3.40
2022-10-04T16:18:37.375Z,7.20
2022-10-04T16:21:25.134Z,8.30
2022-10-04T16:24:24.084Z,8.60
2022-10-04T16:26:53.049Z,11.10
2022-10-04T16:29:32.247Z,7.30
2022-10-04T16:32:22.003Z,9.70
2022-10-04T16:35:01.236Z,7.00
2022-10-04T16:37:44.416Z,19.50
2022-10-04T16:40:32.998Z,11.50
2022-10-04T16:43:17.361Z,11.10
2022-10-04T16:46:18.064Z,13.00
2022-10-04T16:49:18.957Z,10.70
2022-10-04T16:52:06.851Z,11.00
2022-10-04T16:55:01.537Z,14.70
2022-10-04T16:57:31.085Z,26.10
2022-10-04T17:00:34.097Z,16.40
2022-10-04T17:03:07.533Z,10.20
2022-10-04T17:05:48.383Z,14.10
2022-10-04T17:08:18.513Z,10.90
2022-10-04T17:10:50.573Z,13.80
2022-10-04T17:13:46.124Z,13.20
2022-10-04T17:16:33.613Z,21.40
2022-10-04T17:19:36.437Z,16.10
2022-10-04T17:22:37.998Z,18.50
2022-10-04T17:25:08.886Z,15.20
2022-10-04T17:27:50.670Z,23.70
2022-10-04T17:30:23.656Z,19.90
2022-10-04T17:33:15.320Z,18.20
2022-10-04T17:36:01.219Z,14.90
2022-10-04T17:38:30.592Z,14.80
2022-10-04T17:41:21.505Z,16.70
2022-10-04T17:43:57.265Z,32.60
2022-10-04T17:47:04.815Z,30.60
2022-10-04T17:50:37.737Z,28.40
2022-10-04T17:53:38.130Z,26.20
2022-10-04T17:56:12.143Z,35.90
2022-10-04T17:59:06.036Z,33.90
2022-10-04T18:01:42.476Z,18.90
2022-10-04T18:04:30.603Z,23.80
2022-10-04T18:07:24.255Z,20.00
2022-10-04T18:09:57.318Z,23.20
2022-10-04T18:13:02.845Z,17.80
2022-10-04T18:15:44.024Z,27.50
2022-10-04T18:18:29.052Z,22.20
2022-10-04T18:21:09.465Z,21.70
2022-10-04T18:23:39.943Z,20.70
2022-10-04T18:26:21.259Z,16.20
2022-10-04T18:28:54.538Z,16.00
2022-10-04T18:31:32.081Z,27.40
2022-10-04T18:34:16.914Z,20.20
2022-10-04T18:36:58.801Z,22.40
2022-10-04T18:39:28.901Z,24.00
2022-10-04T18:42:18.415Z,19.20
2022-10-04T18:45:21.915Z,18.90
2022-10-04T18:47:54.411Z,16.60
2022-10-04T18:50:36.182Z,15.50
2022-10-04T18:53:32.832Z,16.20
2022-10-04T18:56:09.964Z,19.30
2022-10-04T18:59:38.764Z,19.30
2022-10-04T19:02:49.026Z,22.40
2022-10-04T19:05:33.079Z,20.20
2022-10-04T19:11:56.159Z,17.10
2022-10-04T19:14:51.316Z,17.10
2022-10-04T19:17:46.653Z,17.70
2022-10-04T19:20:41.887Z,17.40
2022-10-04T19:23:20.563Z,14.10
2022-10-04T19:26:26.306Z,20.10
2022-10-04T19:28:59.131Z,15.90
2022-10-04T19:31:40.680Z,14.10
2022-10-04T19:34:35.013Z,17.80
2022-10-04T19:37:14.830Z,16.40
2022-10-04T19:39:59.234Z,14.70
2022-10-04T19:43:10.475Z,12.60
2022-10-04T19:46:23.893Z,14.50
2022-10-04T19:48:56.548Z,15.10
2022-10-04T19:51:28.768Z,17.50
2022-10-04T19:54:15.850Z,15.30
2022-10-04T19:56:49.356Z,15.50
2022-10-04T19:59:52.034Z,18.10
2022-10-04T20:02:23.025Z,13.70
2022-10-04T20:04:54.734Z,18.70
2022-10-04T20:07:29.347Z,20.20
2022-10-04T20:10:37.255Z,22.40
2022-10-04T20:13:24.841Z,23.20
2022-10-04T20:15:57.057Z,21.10
2022-10-04T20:18:33.190Z,19.40
2022-10-04T20:21:29.507Z,16.10
2022-10-04T20:24:01.881Z,20.80
2022-10-04T20:27:06.518Z,21.20
2022-10-04T20:29:38.083Z,89.80
2022-10-04T20:32:37.278Z,97.50
2022-10-04T20:35:13.973Z,21.50
2022-10-04T20:38:27.778Z,21.00
2022-10-04T20:40:55.504Z,17.30
2022-10-04T20:43:26.912Z,13.60
2022-10-04T20:45:57.503Z,18.30
2022-10-04T20:48:29.350Z,12.60
2022-10-04T20:51:11.310Z,15.10
2022-10-04T20:53:51.227Z,13.80
2022-10-04T20:56:33.101Z,12.30
2022-10-04T20:59:03.741Z,13.50
2022-10-04T21:01:37.662Z,13.50
2022-10-04T21:04:43.694Z,15.10
2022-10-04T21:07:19.760Z,14.00
2022-10-04T21:09:54.233Z,13.30
2022-10-04T21:12:39.060Z,14.10
2022-10-04T21:15:30.334Z,15.40
2022-10-04T21:18:07.603Z,17.90
2022-10-04T21:20:52.245Z,16.60
2022-10-04T21:23:35.699Z,16.80
2022-10-04T21:26:26.289Z,20.00
2022-10-04T21:28:58.459Z,17.50
2022-10-04T21:31:28.374Z,18.60
2022-10-04T21:33:58.215Z,15.80
2022-10-04T21:36:27.339Z,21.40
2022-10-04T21:38:59.613Z,16.50
2022-10-04T21:41:30.136Z,16.30
2022-10-04T21:43:59.176Z,15.10
2022-10-04T21:46:31.358Z,19.00
2022-10-04T21:49:06.648Z,16.10
2022-10-04T21:51:37.732Z,14.00
2022-10-04T21:54:08.069Z,15.00
2022-10-04T21:56:37.098Z,15.40
2022-10-04T21:59:07.494Z,15.90
2022-10-04T22:01:38.336Z,14.20
2022-10-04T22:04:09.327Z,16.00
2022-10-04T22:06:40.954Z,15.30
2022-10-04T22:09:10.330Z,13.40
2022-10-04T22:11:42.617Z,13.40
2022-10-04T22:14:11.436Z,14.20
2022-10-04T22:16:42.056Z,13.90
2022-10-04T22:19:12.664Z,17.10
2022-10-04T22:21:42.277Z,16.00
2022-10-04T22:24:18.083Z,17.10
2022-10-04T22:26:49.645Z,13.90
2022-10-04T22:29:23.689Z,14.20
2022-10-04T22:31:53.404Z,12.40
2022-10-04T22:34:25.595Z,15.40
2022-10-04T22:36:54.513Z,14.60
2022-10-04T22:39:26.677Z,16.90
2022-10-04T22:41:59.361Z,18.70
2022-10-04T22:44:32.317Z,16.60
2022-10-04T22:47:03.734Z,17.00
2022-10-04T22:49:37.987Z,13.40
2022-10-04T22:52:14.113Z,17.30
2022-10-04T22:54:48.561Z,14.10
2022-10-04T22:57:19.981Z,16.50
2022-10-04T22:59:52.364Z,15.60
2022-10-04T23:02:27.081Z,17.30
2022-10-04T23:04:59.637Z,15.10
2022-10-04T23:07:29.371Z,16.50
2022-10-04T23:09:59.666Z,15.30
2022-10-04T23:12:28.794Z,16.30
2022-10-04T23:15:03.338Z,15.30
2022-10-04T23:17:37.077Z,19.20
2022-10-04T23:20:14.388Z,15.80
2022-10-04T23:22:47.972Z,14.50
2022-10-04T23:25:25.017Z,16.90
2022-10-04T23:27:58.984Z,14.90
2022-10-04T23:30:32.711Z,16.40
2022-10-04T23:33:04.408Z,16.30
2022-10-04T23:35:34.918Z,14.50
2022-10-04T23:38:07.674Z,14.50
2022-10-04T23:40:37.148Z,18.60
2022-10-04T23:43:13.422Z,17.80
2022-10-04T23:45:47.796Z,16.50
2022-10-04T23:48:32.716Z,14.30
2022-10-04T23:51:02.317Z,17.10
2022-10-04T23:53:34.136Z,16.90
2022-10-04T23:56:12.119Z,56.20
2022-10-04T23:58:42.236Z,14.70
